createdAt,value
2019-05-09T00:01:44.620Z,9.74
2019-05-09T00:04:15.852Z,9.75
2019-05-09T00:06:47.114Z,9.64
2019-05-09T00:09:18.316Z,9.62
2019-05-09T00:11:49.586Z,9.52
2019-05-09T00:14:20.815Z,9.71
2019-05-09T00:16:53.109Z,9.80
2019-05-09T00:19:24.396Z,9.84
2019-05-09T00:21:55.677Z,9.82
2019-05-09T00:24:26.898Z,9.88
2019-05-09T00:26:58.166Z,9.84
2019-05-09T00:29:35.464Z,9.85
2019-05-09T00:32:23.929Z,9.89
2019-05-09T00:35:29.318Z,9.86
2019-05-09T00:38:10.332Z,9.80
2019-05-09T00:40:53.072Z,9.59
2019-05-09T00:43:14.516Z,9.46
2019-05-09T00:46:04.532Z,9.27
2019-05-09T00:48:57.636Z,9.18
2019-05-09T00:51:29.076Z,9.17
2019-05-09T00:54:00.193Z,9.30
2019-05-09T00:56:33.147Z,9.32
2019-05-09T00:59:04.467Z,9.35
2019-05-09T01:01:35.895Z,9.51
2019-05-09T01:04:07.401Z,9.54
2019-05-09T01:06:38.631Z,9.53
2019-05-09T01:09:10.046Z,9.47
2019-05-09T01:11:41.287Z,9.47
2019-05-09T01:14:14.188Z,9.54
2019-05-09T01:16:45.532Z,9.53
2019-05-09T01:19:16.584Z,9.46
2019-05-09T01:21:47.839Z,9.40
2019-05-09T01:24:18.931Z,9.55
2019-05-09T01:26:50.071Z,9.49
2019-05-09T01:29:23.031Z,9.43
2019-05-09T01:31:56.245Z,9.43
2019-05-09T01:34:30.525Z,9.37
2019-05-09T01:37:04.972Z,9.41
2019-05-09T01:39:37.735Z,9.46
2019-05-09T01:42:09.169Z,9.49
2019-05-09T01:44:40.301Z,9.58
2019-05-09T01:47:11.424Z,9.53
2019-05-09T01:49:43.155Z,9.44
2019-05-09T01:52:14.517Z,9.59
2019-05-09T01:54:47.273Z,9.51
2019-05-09T01:57:18.438Z,9.43
2019-05-09T01:59:49.738Z,9.29
2019-05-09T02:02:20.977Z,9.18
2019-05-09T02:04:53.322Z,9.11
2019-05-09T02:07:24.555Z,9.02
2019-05-09T02:09:55.691Z,9.01
2019-05-09T02:12:26.941Z,8.88
2019-05-09T02:15:07.208Z,8.71
2019-05-09T02:17:57.754Z,8.63
2019-05-09T02:20:21.173Z,8.76
2019-05-09T02:22:54.240Z,8.70
2019-05-09T02:25:25.287Z,8.73
2019-05-09T02:27:56.485Z,8.71
2019-05-09T02:30:27.678Z,8.81
2019-05-09T02:32:58.916Z,8.79
2019-05-09T02:35:36.219Z,8.85
2019-05-09T02:38:03.002Z,8.76
2019-05-09T02:40:34.164Z,8.79
2019-05-09T02:43:05.496Z,8.85
2019-05-09T02:45:51.912Z,8.68
2019-05-09T02:48:19.507Z,8.62
2019-05-09T02:50:50.673Z,8.53
2019-05-09T02:53:21.807Z,8.43
2019-05-09T02:55:53.014Z,8.31
2019-05-09T02:58:28.245Z,8.11
2019-05-09T03:01:19.063Z,8.25
2019-05-09T03:03:50.500Z,8.03
2019-05-09T03:06:21.684Z,8.00
2019-05-09T03:08:52.812Z,7.92
2019-05-09T03:11:24.044Z,7.94
2019-05-09T03:13:58.332Z,7.91
2019-05-09T03:16:29.340Z,7.73
2019-05-09T03:19:00.849Z,7.53
2019-05-09T03:21:43.102Z,7.46
2019-05-09T03:24:14.256Z,7.43
2019-05-09T03:26:49.391Z,7.46
2019-05-09T03:29:48.588Z,7.37
2019-05-09T03:32:19.417Z,7.45
2019-05-09T03:34:51.033Z,7.26
2019-05-09T03:37:22.144Z,7.50
2019-05-09T03:39:53.300Z,7.45
2019-05-09T03:42:38.128Z,7.26
2019-05-09T03:44:58.088Z,7.26
2019-05-09T03:47:34.977Z,7.15
2019-05-09T03:50:11.201Z,7.19
2019-05-09T03:52:42.307Z,7.24
2019-05-09T03:55:18.318Z,7.16
2019-05-09T03:57:57.942Z,7.17
2019-05-09T04:00:28.934Z,7.14
2019-05-09T04:03:00.197Z,7.04
2019-05-09T04:05:31.439Z,7.02
2019-05-09T04:08:18.645Z,6.92
2019-05-09T04:10:51.657Z,6.95
2019-05-09T04:13:28.344Z,6.92
2019-05-09T04:15:59.857Z,6.90
2019-05-09T04:18:31.057Z,6.82
2019-05-09T04:21:02.601Z,6.92
2019-05-09T04:23:33.813Z,6.77
2019-05-09T04:26:10.368Z,6.87
2019-05-09T04:28:41.582Z,6.97
2019-05-09T04:31:12.738Z,7.01
2019-05-09T04:33:43.970Z,6.97
2019-05-09T04:36:15.189Z,6.86
2019-05-09T04:38:47.229Z,6.85
2019-05-09T04:41:23.886Z,6.88
2019-05-09T04:43:51.496Z,6.98
2019-05-09T04:46:24.392Z,7.04
2019-05-09T04:48:59.562Z,7.16
2019-05-09T04:51:28.441Z,7.19
2019-05-09T04:53:59.663Z,7.33
2019-05-09T04:56:38.036Z,7.38
2019-05-09T04:59:08.719Z,7.42
2019-05-09T05:01:58.665Z,7.60
2019-05-09T05:04:29.939Z,7.80
2019-05-09T05:07:01.140Z,8.01
2019-05-09T05:09:32.304Z,8.16
2019-05-09T05:12:03.468Z,8.34
2019-05-09T05:14:34.678Z,8.53
2019-05-09T05:17:10.598Z,8.60
2019-05-09T05:19:38.762Z,8.84
2019-05-09T05:22:21.710Z,8.98
2019-05-09T05:25:03.483Z,9.22
2019-05-09T05:27:34.626Z,9.30
2019-05-09T05:30:07.524Z,9.24
2019-05-09T05:32:44.593Z,9.37
2019-05-09T05:35:37.426Z,9.53
2019-05-09T05:38:08.665Z,9.59
2019-05-09T05:40:44.993Z,9.76
2019-05-09T05:43:12.904Z,10.01
2019-05-09T05:45:53.339Z,10.31
2019-05-09T05:48:28.072Z,11.17
2019-05-09T05:50:59.264Z,12.84
2019-05-09T05:53:30.398Z,14.13
2019-05-09T05:56:01.627Z,15.69
2019-05-09T05:58:32.839Z,16.38
2019-05-09T06:01:04.721Z,16.82
2019-05-09T06:03:37.679Z,16.40
2019-05-09T06:06:09.101Z,16.30
2019-05-09T06:08:40.220Z,16.01
2019-05-09T06:11:12.356Z,15.46
2019-05-09T06:13:56.194Z,15.00
2019-05-09T06:16:18.266Z,14.32
2019-05-09T06:18:49.352Z,14.11
2019-05-09T06:21:20.710Z,14.01
2019-05-09T06:23:51.951Z,13.79
2019-05-09T06:26:23.223Z,13.79
2019-05-09T06:28:54.460Z,13.75
2019-05-09T06:31:28.296Z,13.26
2019-05-09T06:33:58.689Z,13.18
2019-05-09T06:36:29.826Z,13.04
2019-05-09T06:39:01.098Z,13.09
2019-05-09T06:41:32.365Z,13.00
2019-05-09T06:44:17.011Z,12.99
2019-05-09T06:46:59.438Z,13.06
2019-05-09T06:49:37.650Z,13.38
2019-05-09T06:52:08.893Z,13.85
2019-05-09T06:54:41.694Z,14.23
2019-05-09T06:57:13.120Z,14.42
2019-05-09T06:59:44.322Z,14.58
2019-05-09T07:02:33.709Z,14.95
2019-05-09T07:05:23.708Z,15.57
2019-05-09T07:08:27.359Z,15.34
2019-05-09T07:10:58.947Z,16.87
2019-05-09T07:13:30.203Z,17.14
2019-05-09T07:16:01.362Z,17.24
2019-05-09T07:18:32.533Z,17.75
2019-05-09T07:21:03.755Z,18.49
2019-05-09T07:23:37.118Z,19.20
2019-05-09T07:26:17.695Z,19.69
2019-05-09T07:28:49.397Z,20.14
2019-05-09T07:31:34.029Z,18.69
2019-05-09T07:34:18.513Z,18.07
2019-05-09T07:36:49.765Z,18.28
2019-05-09T07:39:20.946Z,18.61
2019-05-09T07:41:52.306Z,18.57
2019-05-09T07:44:23.542Z,18.53
2019-05-09T07:47:07.489Z,18.24
2019-05-09T07:49:38.958Z,18.76
2019-05-09T07:52:10.632Z,18.97
2019-05-09T07:54:41.938Z,19.44
2019-05-09T07:57:13.156Z,20.01
2019-05-09T07:59:44.430Z,19.71
2019-05-09T08:02:17.637Z,20.46
2019-05-09T08:04:49.042Z,20.52
2019-05-09T08:07:20.549Z,20.82
2019-05-09T08:09:51.834Z,20.57
2019-05-09T08:12:23.053Z,20.81
2019-05-09T08:15:07.365Z,21.57
2019-05-09T08:17:28.608Z,21.42
2019-05-09T08:19:59.975Z,21.82
2019-05-09T08:22:32.475Z,20.95
2019-05-09T08:25:04.050Z,21.00
2019-05-09T08:27:37.576Z,21.32
2019-05-09T08:30:08.699Z,21.52
2019-05-09T08:32:39.939Z,21.55
2019-05-09T08:35:11.385Z,22.13
2019-05-09T08:37:42.646Z,20.84
2019-05-09T08:40:14.302Z,19.03
2019-05-09T08:42:47.910Z,18.56
2019-05-09T08:45:27.533Z,18.90
2019-05-09T08:47:51.342Z,19.61
2019-05-09T08:50:58.244Z,19.37
2019-05-09T08:53:29.670Z,20.19
2019-05-09T08:56:00.930Z,20.59
2019-05-09T08:58:32.164Z,19.83
2019-05-09T09:01:04.582Z,18.78
2019-05-09T09:03:37.747Z,18.33
2019-05-09T09:06:08.859Z,18.46
2019-05-09T09:08:40.066Z,19.07
2019-05-09T09:11:11.389Z,19.19
2019-05-09T09:13:42.615Z,18.99
2019-05-09T09:16:18.841Z,18.62
2019-05-09T09:18:48.113Z,18.46
2019-05-09T09:21:19.583Z,18.18
2019-05-09T09:23:51.012Z,18.02
2019-05-09T09:26:22.374Z,17.80
2019-05-09T09:28:53.605Z,18.09
2019-05-09T09:31:24.938Z,18.54
2019-05-09T09:33:58.315Z,18.46
2019-05-09T09:36:29.127Z,18.04
2019-05-09T09:39:02.944Z,18.36
2019-05-09T09:41:33.196Z,19.88
2019-05-09T09:44:04.545Z,20.67
2019-05-09T09:46:37.456Z,20.51
2019-05-09T09:49:08.900Z,19.99
2019-05-09T09:51:40.158Z,20.15
2019-05-09T09:54:11.650Z,19.73
2019-05-09T09:56:47.871Z,19.70
2019-05-09T09:59:48.341Z,19.50
2019-05-09T10:02:23.504Z,18.74
2019-05-09T10:04:54.773Z,18.55
2019-05-09T10:07:27.974Z,18.43
2019-05-09T10:09:58.821Z,18.31
2019-05-09T10:12:30.030Z,18.56
2019-05-09T10:15:08.557Z,18.44
2019-05-09T10:17:58.278Z,18.29
2019-05-09T10:20:48.332Z,18.36
2019-05-09T10:23:21.426Z,18.01
2019-05-09T10:25:51.645Z,18.58
2019-05-09T10:28:22.954Z,18.59
2019-05-09T10:30:54.198Z,18.54
2019-05-09T10:33:25.422Z,18.41
2019-05-09T10:36:03.122Z,18.16
2019-05-09T10:38:29.533Z,18.32
2019-05-09T10:41:02.024Z,18.67
2019-05-09T10:43:44.106Z,18.49
2019-05-09T10:46:56.714Z,18.33
2019-05-09T10:49:22.349Z,18.59
2019-05-09T10:51:53.571Z,19.01
2019-05-09T10:54:24.790Z,19.02
2019-05-09T10:56:57.982Z,19.10
2019-05-09T10:59:28.918Z,19.36
2019-05-09T11:02:00.146Z,19.05
2019-05-09T11:04:31.369Z,19.31
2019-05-09T11:07:02.625Z,19.33
2019-05-09T11:09:33.861Z,19.34
2019-05-09T11:12:07.704Z,19.75
2019-05-09T11:14:38.039Z,19.88
2019-05-09T11:17:16.157Z,19.56
2019-05-09T11:19:42.079Z,19.19
2019-05-09T11:22:13.220Z,19.01
2019-05-09T11:24:49.795Z,18.40
2019-05-09T11:27:18.661Z,18.22
2019-05-09T11:29:50.053Z,18.09
2019-05-09T11:32:21.277Z,17.90
2019-05-09T11:34:52.525Z,17.68
2019-05-09T11:37:23.798Z,17.36
2019-05-09T11:39:54.995Z,17.48
2019-05-09T11:42:28.317Z,17.68
2019-05-09T11:44:59.028Z,17.96
2019-05-09T11:47:39.501Z,18.05
2019-05-09T11:50:03.123Z,18.10
2019-05-09T11:52:34.379Z,18.48
2019-05-09T11:55:08.006Z,18.87
2019-05-09T11:57:38.801Z,18.77
2019-05-09T12:00:11.231Z,18.97
2019-05-09T12:02:42.425Z,19.02
2019-05-09T12:05:13.630Z,18.66
2019-05-09T12:07:44.830Z,18.47
2019-05-09T12:10:18.568Z,17.93
2019-05-09T12:12:49.170Z,17.76
2019-05-09T12:15:20.428Z,17.51
2019-05-09T12:17:58.459Z,17.36
2019-05-09T12:20:24.497Z,17.40
2019-05-09T12:22:58.185Z,17.39
2019-05-09T12:25:28.580Z,17.05
2019-05-09T12:27:59.821Z,17.00
2019-05-09T12:30:31.070Z,17.00
2019-05-09T12:33:02.325Z,17.26
2019-05-09T12:35:33.563Z,17.68
2019-05-09T12:38:04.719Z,17.82
2019-05-09T12:40:38.714Z,17.99
2019-05-09T12:43:09.240Z,18.16
2019-05-09T12:45:40.523Z,18.72
2019-05-09T12:48:15.507Z,19.02
2019-05-09T12:50:44.705Z,19.22
2019-05-09T12:53:18.683Z,19.67
2019-05-09T12:55:50.386Z,19.78
2019-05-09T12:58:30.755Z,19.78
2019-05-09T13:01:02.363Z,20.35
2019-05-09T13:03:33.621Z,20.47
2019-05-09T13:06:04.793Z,20.74
2019-05-09T13:08:38.329Z,20.82
2019-05-09T13:11:08.843Z,20.83
2019-05-09T13:13:41.350Z,21.13
2019-05-09T13:16:50.753Z,21.02
2019-05-09T13:19:20.981Z,21.41
2019-05-09T13:21:52.195Z,21.24
2019-05-09T13:24:23.475Z,21.26
2019-05-09T13:26:54.801Z,21.58
2019-05-09T13:29:26.061Z,21.51
2019-05-09T13:31:57.800Z,21.53
2019-05-09T13:34:29.077Z,21.61
2019-05-09T13:37:00.456Z,21.22
2019-05-09T13:39:31.697Z,21.08
2019-05-09T13:42:02.855Z,20.93
2019-05-09T13:44:33.980Z,20.54
2019-05-09T13:47:05.204Z,20.19
2019-05-09T13:49:36.394Z,19.50
2019-05-09T13:52:10.220Z,19.46
2019-05-09T13:54:40.484Z,19.38
2019-05-09T13:57:11.679Z,18.57
2019-05-09T13:59:42.872Z,18.46
2019-05-09T14:02:14.068Z,18.50
2019-05-09T14:04:48.368Z,18.41
2019-05-09T14:07:19.277Z,18.22
2019-05-09T14:09:50.735Z,18.22
2019-05-09T14:12:21.974Z,17.87
2019-05-09T14:14:53.148Z,17.84
2019-05-09T14:17:41.821Z,18.09
2019-05-09T14:19:57.315Z,18.02
2019-05-09T14:22:28.501Z,17.95
2019-05-09T14:24:59.993Z,18.11
2019-05-09T14:27:31.287Z,18.51
2019-05-09T14:30:02.515Z,18.75
2019-05-09T14:32:34.905Z,19.21
2019-05-09T14:35:08.541Z,19.20
2019-05-09T14:37:39.792Z,19.43
2019-05-09T14:40:11.263Z,19.45
2019-05-09T14:42:42.421Z,19.66
2019-05-09T14:45:13.785Z,19.79
2019-05-09T14:47:45.033Z,20.86
2019-05-09T14:50:18.065Z,21.23
2019-05-09T14:52:50.451Z,20.99
2019-05-09T14:55:21.979Z,20.03
2019-05-09T14:57:53.174Z,19.66
2019-05-09T15:00:24.349Z,18.97
2019-05-09T15:02:58.004Z,18.84
2019-05-09T15:05:28.629Z,18.92
2019-05-09T15:07:59.851Z,19.00
2019-05-09T15:10:31.138Z,19.01
2019-05-09T15:13:02.379Z,19.23
2019-05-09T15:15:33.580Z,18.52
2019-05-09T15:18:04.833Z,18.42
2019-05-09T15:20:38.057Z,18.28
2019-05-09T15:23:08.917Z,18.35
2019-05-09T15:25:40.108Z,18.23
2019-05-09T15:28:11.364Z,17.99
2019-05-09T15:30:42.667Z,18.27
2019-05-09T15:33:13.808Z,18.88
2019-05-09T15:35:45.079Z,19.17
2019-05-09T15:38:18.126Z,19.32
2019-05-09T15:40:54.469Z,19.72
2019-05-09T15:43:25.966Z,19.93
2019-05-09T15:46:08.372Z,20.76
2019-05-09T15:48:39.754Z,21.97
2019-05-09T15:51:10.888Z,21.68
2019-05-09T15:53:43.335Z,20.79
2019-05-09T15:56:14.446Z,20.60
2019-05-09T15:58:45.692Z,21.12
2019-05-09T16:01:18.378Z,21.95
2019-05-09T16:03:49.863Z,22.78
2019-05-09T16:06:21.107Z,22.64
2019-05-09T16:08:52.246Z,22.72
2019-05-09T16:11:23.487Z,23.41
2019-05-09T16:13:54.721Z,23.52
2019-05-09T16:16:28.418Z,22.52
2019-05-09T16:18:58.714Z,21.87
2019-05-09T16:21:29.910Z,21.03
2019-05-09T16:24:01.249Z,20.30
2019-05-09T16:26:32.469Z,19.18
2019-05-09T16:29:03.771Z,18.65
2019-05-09T16:31:38.416Z,18.07
2019-05-09T16:34:09.592Z,17.36
2019-05-09T16:36:40.905Z,17.03
2019-05-09T16:39:12.270Z,16.92
2019-05-09T16:41:44.001Z,16.74
2019-05-09T16:44:17.981Z,16.59
2019-05-09T16:46:48.569Z,16.71
2019-05-09T16:49:25.892Z,16.66
2019-05-09T16:51:55.514Z,16.84
2019-05-09T16:54:30.674Z,17.17
2019-05-09T16:57:01.834Z,17.50
2019-05-09T16:59:33.061Z,17.68
2019-05-09T17:02:17.897Z,17.68
2019-05-09T17:04:38.654Z,17.80
2019-05-09T17:07:10.049Z,17.34
2019-05-09T17:09:48.360Z,17.36
2019-05-09T17:12:19.166Z,17.69
2019-05-09T17:14:50.289Z,17.63
2019-05-09T17:17:21.567Z,17.49
2019-05-09T17:19:52.783Z,17.43
2019-05-09T17:22:41.367Z,17.32
2019-05-09T17:25:12.743Z,17.17
2019-05-09T17:27:44.079Z,17.10
2019-05-09T17:30:15.572Z,16.98
2019-05-09T17:32:47.498Z,16.93
2019-05-09T17:35:18.990Z,16.85
2019-05-09T17:37:50.130Z,16.60
2019-05-09T17:40:21.277Z,16.53
2019-05-09T17:42:52.601Z,16.55
2019-05-09T17:45:23.770Z,16.67
2019-05-09T17:47:55.005Z,16.73
2019-05-09T17:50:28.425Z,16.75
2019-05-09T17:52:59.075Z,16.67
2019-05-09T17:55:30.233Z,16.55
2019-05-09T17:58:01.474Z,16.37
2019-05-09T18:00:32.752Z,16.20
2019-05-09T18:03:04.527Z,16.13
2019-05-09T18:05:38.662Z,16.04
2019-05-09T18:08:08.687Z,16.03
2019-05-09T18:10:39.946Z,15.70
2019-05-09T18:13:11.174Z,15.56
2019-05-09T18:15:42.323Z,15.38
2019-05-09T18:18:13.580Z,15.13
2019-05-09T18:20:44.945Z,14.71
2019-05-09T18:23:17.674Z,14.42
2019-05-09T18:25:49.526Z,14.09
2019-05-09T18:28:20.977Z,13.94
2019-05-09T18:30:52.243Z,13.94
2019-05-09T18:33:29.168Z,13.92
2019-05-09T18:36:00.369Z,13.85
2019-05-09T18:38:35.339Z,13.74
2019-05-09T18:41:09.994Z,13.55
2019-05-09T18:43:39.880Z,13.49
2019-05-09T18:46:11.086Z,13.21
2019-05-09T18:48:42.353Z,13.07
2019-05-09T18:51:13.527Z,12.99
2019-05-09T18:53:44.765Z,12.82
2019-05-09T18:56:16.055Z,12.65
2019-05-09T18:58:47.324Z,12.46
2019-05-09T19:01:18.586Z,12.33
2019-05-09T19:03:49.808Z,12.28
2019-05-09T19:06:21.060Z,12.25
2019-05-09T19:08:52.268Z,12.28
2019-05-09T19:11:23.576Z,12.26
2019-05-09T19:13:55.825Z,12.25
2019-05-09T19:16:33.277Z,12.27
2019-05-09T19:19:23.140Z,12.28
2019-05-09T19:21:57.533Z,12.30
2019-05-09T19:24:28.775Z,12.28
2019-05-09T19:26:59.939Z,12.23
2019-05-09T19:29:31.030Z,12.25
2019-05-09T19:32:02.304Z,12.17
2019-05-09T19:34:33.502Z,12.20
2019-05-09T19:37:04.725Z,12.14
2019-05-09T19:39:35.977Z,12.10
2019-05-09T19:42:07.163Z,12.15
2019-05-09T19:44:38.288Z,12.20
2019-05-09T19:47:09.544Z,12.25
2019-05-09T19:49:40.807Z,12.31
2019-05-09T19:52:12.259Z,12.46
2019-05-09T19:54:46.201Z,12.71
2019-05-09T19:57:18.260Z,12.92
2019-05-09T19:59:56.519Z,12.93
2019-05-09T20:02:30.850Z,12.94
2019-05-09T20:05:11.604Z,12.95
2019-05-09T20:07:48.462Z,12.90
2019-05-09T20:10:43.493Z,12.80
2019-05-09T20:13:33.638Z,12.66
2019-05-09T20:16:08.057Z,12.53
2019-05-09T20:18:48.842Z,12.43
2019-05-09T20:21:21.482Z,12.44
2019-05-09T20:23:52.805Z,12.36
2019-05-09T20:26:24.089Z,12.33
2019-05-09T20:28:55.381Z,12.28
2019-05-09T20:31:27.922Z,12.31
2019-05-09T20:33:59.201Z,12.31
2019-05-09T20:36:30.422Z,12.25
2019-05-09T20:39:01.869Z,12.30
2019-05-09T20:41:33.295Z,12.26
2019-05-09T20:44:04.827Z,12.27
2019-05-09T20:46:39.221Z,12.27
2019-05-09T20:49:12.411Z,12.29
2019-05-09T20:51:43.836Z,12.22
2019-05-09T20:54:20.992Z,12.12
2019-05-09T20:56:48.328Z,12.08
2019-05-09T20:59:19.724Z,12.10
2019-05-09T21:01:51.685Z,12.04
2019-05-09T21:04:23.184Z,12.07
2019-05-09T21:06:54.560Z,12.05
2019-05-09T21:09:25.930Z,12.04
2019-05-09T21:11:57.350Z,12.02
2019-05-09T21:14:29.046Z,12.08
2019-05-09T21:17:07.292Z,12.04
2019-05-09T21:19:39.792Z,12.06
2019-05-09T21:22:11.147Z,12.00
2019-05-09T21:24:42.599Z,11.96
2019-05-09T21:27:14.076Z,11.94
2019-05-09T21:29:45.596Z,12.01
2019-05-09T21:32:17.051Z,12.00
2019-05-09T21:34:48.469Z,11.97
2019-05-09T21:37:19.710Z,11.91
2019-05-09T21:39:50.960Z,12.03
2019-05-09T21:42:22.168Z,11.95
2019-05-09T21:44:54.209Z,11.96
2019-05-09T21:47:26.394Z,11.89
2019-05-09T21:49:57.813Z,12.00
2019-05-09T21:52:29.105Z,12.02
2019-05-09T21:55:00.280Z,12.12
2019-05-09T21:57:31.542Z,12.04
2019-05-09T22:00:03.199Z,11.99
2019-05-09T22:02:34.645Z,11.81
2019-05-09T22:05:06.469Z,11.80
2019-05-09T22:07:37.662Z,11.70
2019-05-09T22:10:09.454Z,11.58
2019-05-09T22:12:40.655Z,11.50
2019-05-09T22:15:13.154Z,11.54
2019-05-09T22:17:48.072Z,11.43
2019-05-09T22:20:19.574Z,11.41
2019-05-09T22:22:53.692Z,11.37
2019-05-09T22:25:24.979Z,11.58
2019-05-09T22:27:56.823Z,11.64
2019-05-09T22:30:28.089Z,11.56
2019-05-09T22:32:59.381Z,11.59
2019-05-09T22:35:30.657Z,11.75
2019-05-09T22:38:01.886Z,11.68
2019-05-09T22:40:41.808Z,11.60
2019-05-09T22:43:13.228Z,11.59
2019-05-09T22:45:44.886Z,11.56
2019-05-09T22:48:16.957Z,11.68
2019-05-09T22:50:51.621Z,11.68
2019-05-09T22:53:25.845Z,11.64
2019-05-09T22:55:59.705Z,11.62
2019-05-09T22:58:30.900Z,11.66
2019-05-09T23:01:02.831Z,11.64
2019-05-09T23:03:34.077Z,11.72
2019-05-09T23:06:05.323Z,11.72
2019-05-09T23:08:36.596Z,11.74
2019-05-09T23:11:07.952Z,11.70
2019-05-09T23:13:54.296Z,11.77
2019-05-09T23:16:28.530Z,11.72
2019-05-09T23:18:59.973Z,11.67
2019-05-09T23:21:31.321Z,11.65
2019-05-09T23:24:04.988Z,11.65
2019-05-09T23:26:36.044Z,11.65
2019-05-09T23:29:07.303Z,11.65
2019-05-09T23:31:59.977Z,11.65
2019-05-09T23:34:31.239Z,11.59
2019-05-09T23:37:02.483Z,11.53
2019-05-09T23:39:41.423Z,11.48
2019-05-09T23:42:12.761Z,11.46
2019-05-09T23:44:44.070Z,11.44
2019-05-09T23:47:15.408Z,11.43
2019-05-09T23:49:46.593Z,11.34
2019-05-09T23:52:17.875Z,11.30
2019-05-09T23:55:21.348Z,11.23
2019-05-09T23:58:11.284Z,11.10
